Time,TemperatureF,DewpointF,PressureIn,WindDirection,WindDirectionDegrees,WindSpeedMPH,WindSpeedGustMPH,Humidity,HourlyPrecipIn,Conditions,Clouds,dailyrainin,SoftwareType,DateUTC
2013-06-13 00:00:00,74.5,67.2,29.79,WSW,248,0.7,0.7,78,0.00,,,0.00,WUHU216HW,2013-06-13 04:00:00,
2013-06-13 00:01:00,74.5,67.2,29.79,WSW,248,0.7,0.7,78,0.00,,,0.00,WUHU216HW,2013-06-13 04:01:00,
2013-06-13 00:06:00,74.0,66.7,29.79,West,270,0.4,1.3,78,0.00,,,0.00,WUHU216HW,2013-06-13 04:06:00,
2013-06-13 00:11:00,73.8,67.0,29.78,West,270,0.0,0.9,79,0.00,,,0.00,WUHU216HW,2013-06-13 04:11:00,
2013-06-13 00:16:00,73.6,66.8,29.78,West,270,0.0,0.4,79,0.00,,,0.00,WUHU216HW,2013-06-13 04:16:00,
2013-06-13 00:21:00,73.4,66.6,29.78,SSW,203,0.0,0.7,79,0.00,,,0.00,WUHU216HW,2013-06-13 04:21:00,
2013-06-13 00:26:00,73.4,67.0,29.78,SSW,203,0.4,1.1,80,0.00,,,0.00,WUHU216HW,2013-06-13 04:26:00,
2013-06-13 00:31:00,73.6,67.1,29.78,SSE,158,0.9,1.1,80,0.00,,,0.00,WUHU216HW,2013-06-13 04:31:00,
2013-06-13 00:36:00,73.6,67.1,29.78,SSE,158,0.0,0.9,80,0.00,,,0.00,WUHU216HW,2013-06-13 04:36:00,
2013-06-13 00:41:00,73.6,67.1,29.78,SSE,158,0.0,0.4,80,0.00,,,0.00,WUHU216HW,2013-06-13 04:41:00,
2013-06-13 00:46:00,73.6,67.1,29.79,SSE,158,0.0,0.0,80,0.00,,,0.00,WUHU216HW,2013-06-13 04:46:00,
2013-06-13 00:51:00,73.4,67.0,29.78,SE,135,1.1,1.1,80,0.00,,,0.00,WUHU216HW,2013-06-13 04:51:00,
2013-06-13 00:56:00,73.4,67.0,29.77,SE,135,0.0,1.1,80,0.00,,,0.00,WUHU216HW,2013-06-13 04:56:00,
2013-06-13 01:01:00,73.4,67.0,29.77,SE,135,0.0,0.9,80,0.00,,,0.00,WUHU216HW,2013-06-13 05:01:00,
2013-06-13 01:06:00,73.3,67.2,29.76,WSW,248,1.1,1.1,81,0.00,,,0.00,WUHU216HW,2013-06-13 05:06:00,
2013-06-13 01:11:00,73.1,67.0,29.76,SSW,203,0.0,1.8,81,0.00,,,0.00,WUHU216HW,2013-06-13 05:11:00,
2013-06-13 01:16:00,72.9,67.2,29.76,West,270,0.0,1.8,82,0.00,,,0.00,WUHU216HW,2013-06-13 05:16:00,
2013-06-13 01:21:00,72.7,67.0,29.76,SW,225,2.0,3.6,82,0.00,,,0.00,WUHU216HW,2013-06-13 05:21:00,
2013-06-13 01:26:00,72.7,67.0,29.76,North,0,0.0,3.6,82,0.00,,,0.00,WUHU216HW,2013-06-13 05:26:00,
2013-06-13 01:31:00,72.5,66.8,29.76,West,270,0.0,2.5,82,0.00,,,0.00,WUHU216HW,2013-06-13 05:31:00,
2013-06-13 01:36:00,72.5,66.8,29.77,North,0,0.4,0.4,82,0.00,,,0.00,WUHU216HW,2013-06-13 05:36:00,
2013-06-13 01:41:00,72.5,66.4,29.77,WSW,248,0.0,1.3,81,0.00,,,0.00,WUHU216HW,2013-06-13 05:41:00,
2013-06-13 01:46:00,72.7,67.0,29.77,West,270,0.4,1.3,82,0.00,,,0.00,WUHU216HW,2013-06-13 05:46:00,
2013-06-13 01:51:00,72.7,67.2,29.77,NNW,338,0.0,0.9,83,0.00,,,0.00,WUHU216HW,2013-06-13 05:51:00,
2013-06-13 01:56:00,72.5,66.8,29.78,West,270,0.2,0.7,82,0.00,,,0.00,WUHU216HW,2013-06-13 05:56:00,
2013-06-13 02:01:00,72.5,66.8,29.78,WSW,248,0.0,0.7,82,0.00,,,0.00,WUHU216HW,2013-06-13 06:01:00,
2013-06-13 02:06:00,72.7,67.0,29.78,SSW,203,0.9,1.1,82,0.00,,,0.00,WUHU216HW,2013-06-13 06:06:00,
2013-06-13 02:11:00,72.5,66.8,29.79,SW,225,0.9,1.3,82,0.00,,,0.00,WUHU216HW,2013-06-13 06:11:00,
2013-06-13 02:16:00,72.5,67.1,29.78,West,270,0.0,1.3,83,0.00,,,0.00,WUHU216HW,2013-06-13 06:16:00,
2013-06-13 02:21:00,72.4,66.9,29.78,SSW,203,1.1,1.1,83,0.01,,,0.01,WUHU216HW,2013-06-13 06:21:00,
2013-06-13 02:26:00,72.4,66.9,29.78,SSW,203,1.1,1.1,83,0.02,,,0.02,WUHU216HW,2013-06-13 06:26:00,
2013-06-13 02:31:00,72.4,66.9,29.77,SW,225,1.1,1.8,83,0.03,,,0.03,WUHU216HW,2013-06-13 06:31:00,
2013-06-13 02:37:00,72.4,67.2,29.76,SSW,203,1.8,3.1,84,0.05,,,0.05,WUHU216HW,2013-06-13 06:37:00,
2013-06-13 02:42:00,72.2,67.1,29.77,SSW,203,0.9,3.1,84,0.06,,,0.06,WUHU216HW,2013-06-13 06:42:00,
2013-06-13 02:47:00,72.0,66.9,29.76,SSW,203,1.1,2.2,84,0.06,,,0.06,WUHU216HW,2013-06-13 06:47:00,
2013-06-13 02:52:00,72.0,66.9,29.75,SSW,203,2.0,2.2,84,0.06,,,0.06,WUHU216HW,2013-06-13 06:52:00,
2013-06-13 02:57:00,71.8,67.1,29.74,WSW,248,1.8,3.1,85,0.06,,,0.06,WUHU216HW,2013-06-13 06:57:00,
2013-06-13 03:02:00,71.6,66.5,29.74,SSE,158,0.0,3.1,84,0.06,,,0.06,WUHU216HW,2013-06-13 07:02:00,
2013-06-13 03:07:00,71.6,66.5,29.74,SW,225,1.1,1.6,84,0.06,,,0.06,WUHU216HW,2013-06-13 07:07:00,
2013-06-13 03:12:00,71.6,66.5,29.75,WSW,248,0.0,1.1,84,0.06,,,0.06,WUHU216HW,2013-06-13 07:12:00,
2013-06-13 03:17:00,71.3,66.5,29.75,NNW,338,0.2,1.1,85,0.05,,,0.06,WUHU216HW,2013-06-13 07:17:00,
2013-06-13 03:22:00,71.3,66.5,29.75,WSW,248,0.0,0.7,85,0.05,,,0.06,WUHU216HW,2013-06-13 07:22:00,
2013-06-13 03:27:00,71.3,66.5,29.76,West,270,0.0,0.9,85,0.03,,,0.06,WUHU216HW,2013-06-13 07:27:00,
2013-06-13 03:32:00,71.1,66.7,29.76,SW,225,1.1,1.1,86,0.02,,,0.06,WUHU216HW,2013-06-13 07:32:00,
2013-06-13 03:37:00,71.1,66.7,29.76,WSW,248,2.2,2.2,86,0.00,,,0.06,WUHU216HW,2013-06-13 07:37:00,
2013-06-13 03:42:00,70.9,66.5,29.73,South,180,2.0,2.9,86,0.00,,,0.06,WUHU216HW,2013-06-13 07:42:00,
2013-06-13 03:47:00,71.1,66.7,29.71,South,180,2.5,4.5,86,0.01,,,0.07,WUHU216HW,2013-06-13 07:47:00,
2013-06-13 03:52:00,70.9,66.5,29.69,SW,225,0.9,4.5,86,0.01,,,0.07,WUHU216HW,2013-06-13 07:52:00,
2013-06-13 03:57:00,70.9,66.5,29.70,SW,225,3.4,5.6,86,0.01,,,0.07,WUHU216HW,2013-06-13 07:57:00,
2013-06-13 04:02:00,70.7,66.3,29.70,WSW,248,2.5,5.6,86,0.01,,,0.07,WUHU216HW,2013-06-13 08:02:00,
2013-06-13 04:07:00,70.6,66.2,29.69,WSW,248,0.2,5.6,86,0.01,,,0.07,WUHU216HW,2013-06-13 08:07:00,
2013-06-13 04:12:00,70.6,66.2,29.69,South,180,3.4,3.4,86,0.01,,,0.07,WUHU216HW,2013-06-13 08:12:00,
2013-06-13 04:17:00,70.4,66.0,29.69,WSW,248,3.4,3.6,86,0.01,,,0.07,WUHU216HW,2013-06-13 08:17:00,
2013-06-13 04:22:00,70.2,65.8,29.69,SW,225,0.4,4.0,86,0.01,,,0.07,WUHU216HW,2013-06-13 08:22:00,
2013-06-13 04:27:00,70.2,66.2,29.69,SW,225,1.8,4.0,87,0.01,,,0.07,WUHU216HW,2013-06-13 08:27:00,
2013-06-13 04:32:00,70.0,66.0,29.69,SSW,203,1.3,2.5,87,0.01,,,0.07,WUHU216HW,2013-06-13 08:32:00,
2013-06-13 04:37:00,69.8,65.8,29.68,SW,225,0.2,3.1,87,0.01,,,0.07,WUHU216HW,2013-06-13 08:37:00,
2013-06-13 04:42:00,69.8,65.8,29.68,West,270,0.4,3.1,87,0.01,,,0.07,WUHU216HW,2013-06-13 08:42:00,
2013-06-13 04:47:00,69.7,65.6,29.67,NW,315,0.9,2.0,87,0.00,,,0.07,WUHU216HW,2013-06-13 08:47:00,
2013-06-13 04:52:00,69.7,65.6,29.67,SW,225,2.7,2.7,87,0.00,,,0.07,WUHU216HW,2013-06-13 08:52:00,
2013-06-13 04:57:00,69.5,65.4,29.66,SW,225,1.8,2.7,87,0.00,,,0.07,WUHU216HW,2013-06-13 08:57:00,
2013-06-13 05:02:00,69.5,65.4,29.66,WSW,248,0.2,2.2,87,0.00,,,0.07,WUHU216HW,2013-06-13 09:02:00,
2013-06-13 05:07:00,69.5,65.4,29.66,WSW,248,0.4,1.8,87,0.00,,,0.07,WUHU216HW,2013-06-13 09:07:00,
2013-06-13 05:12:00,69.5,65.4,29.66,SSW,203,2.5,3.1,87,0.00,,,0.07,WUHU216HW,2013-06-13 09:12:00,
2013-06-13 05:17:00,69.3,65.6,29.66,WSW,248,0.9,4.7,88,0.00,,,0.07,WUHU216HW,2013-06-13 09:17:00,
2013-06-13 05:22:00,69.3,65.3,29.66,SW,225,1.1,4.7,87,0.00,,,0.07,WUHU216HW,2013-06-13 09:22:00,
2013-06-13 05:27:00,69.3,65.3,29.66,SW,225,1.8,1.8,87,0.00,,,0.07,WUHU216HW,2013-06-13 09:27:00,
2013-06-13 05:32:00,69.3,65.3,29.66,WSW,248,1.3,1.8,87,0.00,,,0.07,WUHU216HW,2013-06-13 09:32:00,
2013-06-13 05:38:00,69.3,65.3,29.66,SSW,203,2.9,2.9,87,0.00,,,0.07,WUHU216HW,2013-06-13 09:38:00,
2013-06-13 05:43:00,69.3,65.3,29.66,SSW,203,2.2,2.9,87,0.00,,,0.07,WUHU216HW,2013-06-13 09:43:00,
2013-06-13 05:49:00,69.1,65.1,29.66,SSW,203,3.1,4.5,87,0.00,,,0.07,WUHU216HW,2013-06-13 09:49:00,
2013-06-13 05:54:00,69.1,65.4,29.66,SW,225,2.2,4.5,88,0.00,,,0.07,WUHU216HW,2013-06-13 09:54:00,
2013-06-13 05:59:00,69.1,65.4,29.65,SW,225,2.2,2.9,88,0.00,,,0.07,WUHU216HW,2013-06-13 09:59:00,
2013-06-13 06:04:00,69.1,65.4,29.65,SW,225,1.3,3.8,88,0.00,,,0.07,WUHU216HW,2013-06-13 10:04:00,
2013-06-13 06:09:00,69.1,65.4,29.65,SW,225,1.3,3.8,88,0.00,,,0.07,WUHU216HW,2013-06-13 10:09:00,
2013-06-13 06:32:00,69.1,65.4,29.63,South,180,3.4,3.4,88,0.00,,,0.07,WUHU216HW,2013-06-13 10:32:00,
2013-06-13 06:37:00,69.1,65.4,29.63,West,270,1.1,3.4,88,0.00,,,0.07,WUHU216HW,2013-06-13 10:37:00,
2013-06-13 06:43:00,69.1,65.4,29.64,West,270,0.7,2.5,88,0.00,,,0.07,WUHU216HW,2013-06-13 10:43:00,
2013-06-13 06:48:00,69.1,65.4,29.64,SW,225,0.0,2.5,88,0.00,,,0.07,WUHU216HW,2013-06-13 10:48:00,
2013-06-13 06:53:00,69.1,65.4,29.64,SSW,203,1.1,2.5,88,0.00,,,0.07,WUHU216HW,2013-06-13 10:53:00,
2013-06-13 06:58:00,69.1,65.4,29.64,SSW,203,4.0,4.0,88,0.00,,,0.07,WUHU216HW,2013-06-13 10:58:00,
2013-06-13 07:05:00,69.1,65.4,29.64,South,180,3.4,4.0,88,0.00,,,0.07,WUHU216HW,2013-06-13 11:05:00,
2013-06-13 07:10:00,69.1,65.4,29.63,SW,225,0.2,3.4,88,0.00,,,0.07,WUHU216HW,2013-06-13 11:10:00,
2013-06-13 07:15:00,68.9,65.3,29.63,SSW,203,3.6,3.8,88,0.00,,,0.07,WUHU216HW,2013-06-13 11:15:00,
2013-06-13 07:20:00,69.1,65.4,29.63,SW,225,1.1,5.1,88,0.00,,,0.07,WUHU216HW,2013-06-13 11:20:00,
2013-06-13 07:25:00,69.1,65.4,29.63,West,270,1.3,5.1,88,0.00,,,0.07,WUHU216HW,2013-06-13 11:25:00,
2013-06-13 07:30:00,68.9,65.3,29.63,South,180,0.9,3.6,88,0.00,,,0.07,WUHU216HW,2013-06-13 11:30:00,
2013-06-13 07:35:00,68.9,65.3,29.64,East,90,0.4,2.5,88,0.00,,,0.07,WUHU216HW,2013-06-13 11:35:00,
2013-06-13 07:40:00,68.9,65.3,29.67,WSW,248,2.2,5.1,88,0.00,,,0.07,WUHU216HW,2013-06-13 11:40:00,
2013-06-13 07:45:00,69.1,65.1,29.68,NNW,338,1.8,5.1,87,0.00,,,0.07,WUHU216HW,2013-06-13 11:45:00,
2013-06-13 07:50:00,69.1,64.7,29.68,North,0,1.1,4.7,86,0.00,,,0.07,WUHU216HW,2013-06-13 11:50:00,
2013-06-13 07:55:00,69.1,65.1,29.70,North,0,4.7,4.7,87,0.07,,,0.11,WUHU216HW,2013-06-13 11:55:00,
2013-06-13 08:00:00,68.8,65.1,29.69,SW,225,4.0,4.7,88,0.20,,,0.27,WUHU216HW,2013-06-13 12:00:00,
2013-06-13 08:05:00,68.2,64.5,29.69,North,0,0.7,4.3,88,0.21,,,0.28,WUHU216HW,2013-06-13 12:05:00,
2013-06-13 08:10:00,68.2,64.5,29.69,NNW,338,0.2,1.8,88,0.21,,,0.28,WUHU216HW,2013-06-13 12:10:00,
2013-06-13 08:15:00,68.0,64.4,29.69,SSW,203,1.8,1.8,88,0.22,,,0.29,WUHU216HW,2013-06-13 12:15:00,
2013-06-13 08:20:00,68.2,64.5,29.69,WSW,248,2.5,2.9,88,0.22,,,0.29,WUHU216HW,2013-06-13 12:20:00,
2013-06-13 08:25:00,68.2,64.5,29.69,WSW,248,2.0,4.0,88,0.23,,,0.30,WUHU216HW,2013-06-13 12:25:00,
2013-06-13 08:30:00,68.2,64.8,29.69,West,270,1.1,4.0,89,0.23,,,0.30,WUHU216HW,2013-06-13 12:30:00,
2013-06-13 08:35:00,68.0,64.4,29.68,South,180,2.9,2.9,88,0.23,,,0.30,WUHU216HW,2013-06-13 12:35:00,
2013-06-13 08:41:00,68.2,64.8,29.67,North,0,0.0,2.9,89,0.24,,,0.31,WUHU216HW,2013-06-13 12:41:00,
2013-06-13 08:46:00,68.2,64.8,29.68,SSW,203,4.0,4.0,89,0.24,,,0.31,WUHU216HW,2013-06-13 12:46:00,
2013-06-13 08:51:00,68.2,64.5,29.67,SSW,203,0.7,4.0,88,0.25,,,0.32,WUHU216HW,2013-06-13 12:51:00,
2013-06-13 08:56:00,68.4,64.7,29.67,SSE,158,5.1,5.1,88,0.14,,,0.32,WUHU216HW,2013-06-13 12:56:00,
2013-06-13 09:01:00,68.4,64.7,29.66,SW,225,4.0,6.0,88,0.05,,,0.33,WUHU216HW,2013-06-13 13:01:00,
2013-06-13 09:06:00,68.2,64.5,29.68,NNE,23,0.4,6.0,88,0.05,,,0.33,WUHU216HW,2013-06-13 13:06:00,
2013-06-13 09:11:00,68.0,64.4,29.68,WSW,248,1.1,7.6,88,0.04,,,0.33,WUHU216HW,2013-06-13 13:11:00,
2013-06-13 09:16:00,68.0,64.4,29.68,NNE,23,2.5,7.6,88,0.05,,,0.34,WUHU216HW,2013-06-13 13:16:00,
2013-06-13 09:21:00,67.9,64.2,29.67,SSE,158,1.8,9.2,88,0.04,,,0.34,WUHU216HW,2013-06-13 13:21:00,
2013-06-13 09:26:00,67.9,64.2,29.63,SE,135,3.4,9.2,88,0.05,,,0.35,WUHU216HW,2013-06-13 13:26:00,
2013-06-13 09:31:00,67.7,63.6,29.64,SW,225,4.3,5.8,87,0.06,,,0.36,WUHU216HW,2013-06-13 13:31:00,
2013-06-13 09:36:00,67.3,63.3,29.64,SSE,158,4.7,4.7,87,0.06,,,0.37,WUHU216HW,2013-06-13 13:36:00,
2013-06-13 09:42:00,67.1,63.1,29.64,South,180,9.2,9.2,87,0.07,,,0.39,WUHU216HW,2013-06-13 13:42:00,
2013-06-13 09:47:00,67.0,62.9,29.66,SW,225,7.6,11.0,87,0.07,,,0.39,WUHU216HW,2013-06-13 13:47:00,
2013-06-13 09:52:00,66.8,63.1,29.64,West,270,1.1,11.0,88,0.07,,,0.39,WUHU216HW,2013-06-13 13:52:00,
2013-06-13 09:57:00,66.8,63.4,29.64,SW,225,6.7,6.7,89,0.07,,,0.40,WUHU216HW,2013-06-13 13:57:00,
2013-06-13 10:02:00,66.8,63.4,29.64,SW,225,10.7,12.3,89,0.07,,,0.40,WUHU216HW,2013-06-13 14:02:00,
2013-06-13 10:07:00,66.8,63.1,29.62,West,270,5.4,12.3,88,0.07,,,0.40,WUHU216HW,2013-06-13 14:07:00,
2013-06-13 10:15:00,66.8,63.4,29.60,SSW,203,7.4,10.1,89,0.07,,,0.41,WUHU216HW,2013-06-13 14:15:00,
2013-06-13 10:20:00,66.8,62.7,29.57,SW,225,6.5,7.8,87,0.07,,,0.41,WUHU216HW,2013-06-13 14:20:00,
2013-06-13 10:25:00,67.0,62.7,29.56,WSW,248,6.3,7.8,86,0.06,,,0.42,WUHU216HW,2013-06-13 14:25:00,
2013-06-13 10:30:00,67.1,62.8,29.55,WSW,248,7.2,8.1,86,0.06,,,0.42,WUHU216HW,2013-06-13 14:30:00,
2013-06-13 10:35:00,67.3,63.6,29.56,NNW,338,0.9,8.1,88,0.05,,,0.42,WUHU216HW,2013-06-13 14:35:00,
2013-06-13 10:40:00,67.1,63.1,29.58,SW,225,4.0,7.8,87,0.04,,,0.42,WUHU216HW,2013-06-13 14:40:00,
2013-06-13 10:45:00,67.1,63.5,29.58,WNW,293,0.9,9.6,88,0.03,,,0.42,WUHU216HW,2013-06-13 14:45:00,
2013-06-13 10:50:00,67.3,63.6,29.58,SSW,203,7.4,10.5,88,0.03,,,0.42,WUHU216HW,2013-06-13 14:50:00,
2013-06-13 10:55:00,67.3,63.6,29.59,WNW,293,1.6,10.5,88,0.02,,,0.42,WUHU216HW,2013-06-13 14:55:00,
2013-06-13 11:00:00,67.5,63.8,29.60,SW,225,3.6,9.2,88,0.02,,,0.42,WUHU216HW,2013-06-13 15:00:00,
2013-06-13 11:05:00,67.9,64.2,29.60,SSW,203,7.6,7.6,88,0.02,,,0.42,WUHU216HW,2013-06-13 15:05:00,
2013-06-13 11:10:00,68.0,64.4,29.60,WSW,248,3.6,7.6,88,0.02,,,0.42,WUHU216HW,2013-06-13 15:10:00,
2013-06-13 11:15:00,68.2,64.5,29.59,NNW,338,0.7,6.5,88,0.01,,,0.42,WUHU216HW,2013-06-13 15:15:00,
2013-06-13 11:20:00,68.2,64.5,29.59,WSW,248,10.5,10.5,88,0.00,,,0.42,WUHU216HW,2013-06-13 15:20:00,
2013-06-13 11:27:00,68.4,64.7,29.58,WNW,293,4.0,10.5,88,0.00,,,0.42,WUHU216HW,2013-06-13 15:27:00,
2013-06-13 11:32:00,68.6,64.9,29.58,SSW,203,1.3,5.4,88,0.00,,,0.42,WUHU216HW,2013-06-13 15:32:00,
2013-06-13 11:37:00,68.8,65.1,29.58,SSE,158,1.3,4.9,88,0.00,,,0.42,WUHU216HW,2013-06-13 15:37:00,
2013-06-13 11:42:00,69.1,65.4,29.58,SSW,203,6.0,6.0,88,0.00,,,0.42,WUHU216HW,2013-06-13 15:42:00,
2013-06-13 11:47:00,69.5,65.7,29.57,South,180,4.3,7.4,88,0.00,,,0.42,WUHU216HW,2013-06-13 15:47:00,
2013-06-13 11:52:00,69.7,65.6,29.57,SW,225,4.7,7.4,87,0.00,,,0.42,WUHU216HW,2013-06-13 15:52:00,
2013-06-13 11:57:00,70.2,66.4,29.57,SW,225,4.7,6.5,88,0.00,,,0.42,WUHU216HW,2013-06-13 15:57:00,
2013-06-13 12:02:00,71.6,66.9,29.56,WNW,293,8.7,10.5,85,0.00,,,0.42,WUHU216HW,2013-06-13 16:02:00,
2013-06-13 12:07:00,72.7,67.6,29.56,SSW,203,6.3,10.5,84,0.00,,,0.42,WUHU216HW,2013-06-13 16:07:00,
2013-06-13 12:12:00,73.4,68.0,29.56,SSW,203,1.8,7.4,83,0.00,,,0.42,WUHU216HW,2013-06-13 16:12:00,
2013-06-13 12:18:00,74.2,68.4,29.56,South,180,11.4,11.4,82,0.00,,,0.42,WUHU216HW,2013-06-13 16:18:00,
2013-06-13 12:23:00,75.1,69.3,29.55,SW,225,7.6,11.4,82,0.00,,,0.42,WUHU216HW,2013-06-13 16:23:00,
2013-06-13 12:28:00,75.8,69.6,29.55,SSW,203,8.9,8.9,81,0.00,,,0.42,WUHU216HW,2013-06-13 16:28:00,
2013-06-13 12:33:00,76.3,70.1,29.54,NW,315,2.0,9.6,81,0.00,,,0.42,WUHU216HW,2013-06-13 16:33:00,
2013-06-13 12:38:00,76.7,69.0,29.54,ENE,68,3.4,9.6,77,0.00,,,0.42,WUHU216HW,2013-06-13 16:38:00,
2013-06-13 12:43:00,76.9,68.7,29.55,SW,225,3.8,8.3,76,0.00,,,0.42,WUHU216HW,2013-06-13 16:43:00,
2013-06-13 12:48:00,77.2,68.7,29.55,SW,225,3.4,9.8,75,0.00,,,0.42,WUHU216HW,2013-06-13 16:48:00,
2013-06-13 12:53:00,77.8,69.2,29.54,WSW,248,5.1,9.8,75,0.00,,,0.42,WUHU216HW,2013-06-13 16:53:00,
2013-06-13 12:58:00,78.3,69.3,29.53,West,270,4.7,14.3,74,0.00,,,0.42,WUHU216HW,2013-06-13 16:58:00,
2013-06-13 13:03:00,78.8,69.9,29.52,NNW,338,4.7,14.3,74,0.00,,,0.42,WUHU216HW,2013-06-13 17:03:00,
2013-06-13 13:08:00,78.7,68.9,29.52,NW,315,1.3,6.0,72,0.00,,,0.42,WUHU216HW,2013-06-13 17:08:00,
2013-06-13 13:13:00,78.1,68.8,29.53,WNW,293,1.8,4.3,73,0.00,,,0.42,WUHU216HW,2013-06-13 17:13:00,
2013-06-13 13:18:00,77.8,68.4,29.54,SSW,203,6.9,6.9,73,0.00,,,0.42,WUHU216HW,2013-06-13 17:18:00,
2013-06-13 13:24:00,78.1,69.5,29.54,SW,225,5.6,6.9,75,0.00,,,0.42,WUHU216HW,2013-06-13 17:24:00,
2013-06-13 13:29:00,78.7,68.9,29.53,SSW,203,2.0,6.3,72,0.00,,,0.42,WUHU216HW,2013-06-13 17:29:00,
2013-06-13 13:34:00,79.7,69.9,29.53,SSE,158,5.8,9.8,72,0.00,,,0.42,WUHU216HW,2013-06-13 17:34:00,
2013-06-13 13:39:00,80.5,70.7,29.53,SSW,203,5.4,9.8,72,0.00,,,0.42,WUHU216HW,2013-06-13 17:39:00,
2013-06-13 13:43:00,81.0,70.4,29.53,NW,315,5.4,11.0,70,0.00,,,0.42,WUHU216HW,2013-06-13 17:43:00,
2013-06-13 13:48:00,81.0,70.4,29.53,South,180,4.0,11.0,70,0.00,,,0.42,WUHU216HW,2013-06-13 17:48:00,
2013-06-13 13:54:00,81.4,69.3,29.53,SW,225,12.8,12.8,67,0.00,,,0.42,WUHU216HW,2013-06-13 17:54:00,
2013-06-13 13:59:00,81.4,70.7,29.53,SSW,203,2.9,12.8,70,0.00,,,0.42,WUHU216HW,2013-06-13 17:59:00,
2013-06-13 14:04:00,81.4,70.2,29.52,SSE,158,4.5,10.5,69,0.00,,,0.42,WUHU216HW,2013-06-13 18:04:00,
2013-06-13 14:09:00,81.5,70.8,29.52,SW,225,6.7,7.6,70,0.00,,,0.42,WUHU216HW,2013-06-13 18:09:00,
2013-06-13 14:14:00,81.4,69.8,29.51,SSW,203,3.4,7.6,68,0.00,,,0.42,WUHU216HW,2013-06-13 18:14:00,
2013-06-13 14:19:00,81.2,70.5,29.51,SW,225,4.9,12.3,70,0.00,,,0.42,WUHU216HW,2013-06-13 18:19:00,
2013-06-13 14:24:00,81.0,69.5,29.51,SE,135,2.7,12.3,68,0.00,,,0.42,WUHU216HW,2013-06-13 18:24:00,
2013-06-13 14:29:00,80.6,69.6,29.50,SW,225,3.1,9.2,69,0.00,,,0.42,WUHU216HW,2013-06-13 18:29:00,
2013-06-13 14:34:00,80.3,69.7,29.49,West,270,1.3,4.3,70,0.00,,,0.42,WUHU216HW,2013-06-13 18:34:00,
2013-06-13 14:39:00,79.4,69.1,29.50,SSW,203,1.1,2.2,71,0.00,,,0.42,WUHU216HW,2013-06-13 18:39:00,
2013-06-13 14:44:00,77.8,69.9,29.55,NW,315,2.2,4.3,77,0.13,,,0.52,WUHU216HW,2013-06-13 18:44:00,
2013-06-13 14:49:00,74.7,68.6,29.57,SW,225,6.9,9.4,81,0.44,,,0.80,WUHU216HW,2013-06-13 18:49:00,
2013-06-13 14:54:00,73.1,67.0,29.54,WNW,293,1.6,9.4,81,0.55,,,0.95,WUHU216HW,2013-06-13 18:54:00,
2013-06-13 14:59:00,72.2,66.1,29.54,SSW,203,0.9,2.5,81,0.58,,,1.00,WUHU216HW,2013-06-13 18:59:00,
2013-06-13 15:04:00,72.0,66.3,29.54,WNW,293,0.4,2.2,82,0.59,,,1.01,WUHU216HW,2013-06-13 19:04:00,
2013-06-13 15:09:00,72.0,66.3,29.54,South,180,1.6,1.8,82,0.59,,,1.01,WUHU216HW,2013-06-13 19:09:00,
2013-06-13 15:14:00,72.2,66.4,29.54,WSW,248,0.0,1.8,82,0.59,,,1.01,WUHU216HW,2013-06-13 19:14:00,
2013-06-13 15:19:00,72.2,66.7,29.55,WSW,248,3.4,3.4,83,0.59,,,1.01,WUHU216HW,2013-06-13 19:19:00,
2013-06-13 15:24:00,72.4,67.2,29.54,WSW,248,3.1,4.7,84,0.59,,,1.01,WUHU216HW,2013-06-13 19:24:00,
2013-06-13 15:29:00,72.7,68.3,29.53,WSW,248,1.1,4.7,86,0.59,,,1.01,WUHU216HW,2013-06-13 19:29:00,
2013-06-13 15:34:00,72.9,68.1,29.53,WSW,248,6.5,6.5,85,0.59,,,1.01,WUHU216HW,2013-06-13 19:34:00,
2013-06-13 15:39:00,73.4,69.0,29.52,West,270,1.1,6.7,86,0.58,,,1.01,WUHU216HW,2013-06-13 19:39:00,
2013-06-13 15:44:00,73.8,69.0,29.51,NW,315,0.7,6.7,85,0.43,,,1.01,WUHU216HW,2013-06-13 19:44:00,
2013-06-13 15:49:00,73.6,68.1,29.51,West,270,1.8,3.1,83,0.07,,,1.01,WUHU216HW,2013-06-13 19:49:00,
2013-06-13 15:54:00,73.4,68.0,29.50,West,270,0.4,2.9,83,0.02,,,1.01,WUHU216HW,2013-06-13 19:54:00,
2013-06-13 15:59:00,73.4,67.7,29.50,SSW,203,0.7,2.9,82,0.00,,,1.01,WUHU216HW,2013-06-13 19:59:00,
2013-06-13 16:04:00,73.3,67.8,29.51,WSW,248,1.3,1.8,83,0.00,,,1.01,WUHU216HW,2013-06-13 20:04:00,
2013-06-13 16:09:00,73.1,67.6,29.52,SW,225,0.4,1.8,83,0.00,,,1.01,WUHU216HW,2013-06-13 20:09:00,
2013-06-13 16:14:00,72.9,67.4,29.52,West,270,0.0,1.8,83,0.00,,,1.01,WUHU216HW,2013-06-13 20:14:00,
2013-06-13 16:19:00,72.7,67.2,29.53,WSW,248,0.0,2.5,83,0.00,,,1.01,WUHU216HW,2013-06-13 20:19:00,
2013-06-13 16:24:00,72.4,66.9,29.53,WSW,248,0.2,2.5,83,0.00,,,1.01,WUHU216HW,2013-06-13 20:24:00,
2013-06-13 16:29:00,72.4,66.9,29.53,WSW,248,0.9,4.0,83,0.00,,,1.01,WUHU216HW,2013-06-13 20:29:00,
2013-06-13 16:34:00,72.2,66.7,29.53,SE,135,0.4,4.0,83,0.00,,,1.01,WUHU216HW,2013-06-13 20:34:00,
2013-06-13 16:39:00,72.2,67.1,29.53,West,270,0.4,2.0,84,0.00,,,1.01,WUHU216HW,2013-06-13 20:39:00,
2013-06-13 16:44:00,72.0,66.5,29.53,West,270,1.8,3.1,83,0.00,,,1.01,WUHU216HW,2013-06-13 20:44:00,
2013-06-13 16:49:00,71.8,66.7,29.53,South,180,1.6,3.1,84,0.00,,,1.01,WUHU216HW,2013-06-13 20:49:00,
2013-06-13 16:54:00,72.0,66.9,29.53,WSW,248,2.5,4.0,84,0.00,,,1.01,WUHU216HW,2013-06-13 20:54:00,
2013-06-13 16:59:00,72.4,67.2,29.53,SSW,203,3.4,4.0,84,0.00,,,1.01,WUHU216HW,2013-06-13 20:59:00,
2013-06-13 17:04:00,72.4,66.9,29.53,ESE,113,0.9,3.4,83,0.00,,,1.01,WUHU216HW,2013-06-13 21:04:00,
2013-06-13 17:09:00,72.4,66.9,29.53,SW,225,0.7,2.2,83,0.00,,,1.01,WUHU216HW,2013-06-13 21:09:00,
2013-06-13 17:14:00,72.4,66.6,29.52,SW,225,0.7,2.7,82,0.00,,,1.01,WUHU216HW,2013-06-13 21:14:00,
2013-06-13 17:19:00,72.0,66.3,29.53,South,180,0.4,2.7,82,0.00,,,1.01,WUHU216HW,2013-06-13 21:19:00,
2013-06-13 17:24:00,72.0,66.5,29.53,South,180,0.7,2.7,83,0.00,,,1.01,WUHU216HW,2013-06-13 21:24:00,
2013-06-13 17:29:00,71.8,66.1,29.53,SSW,203,0.0,2.7,82,0.00,,,1.01,WUHU216HW,2013-06-13 21:29:00,
2013-06-13 17:34:00,71.6,65.9,29.53,WSW,248,1.1,1.3,82,0.00,,,1.01,WUHU216HW,2013-06-13 21:34:00,
2013-06-13 17:39:00,71.6,65.9,29.53,SW,225,0.9,2.0,82,0.00,,,1.01,WUHU216HW,2013-06-13 21:39:00,
2013-06-13 17:44:00,71.5,66.0,29.53,SSE,158,3.6,3.6,83,0.00,,,1.01,WUHU216HW,2013-06-13 21:44:00,
2013-06-13 17:49:00,71.3,65.2,29.53,SE,135,1.1,3.6,81,0.00,,,1.01,WUHU216HW,2013-06-13 21:49:00,
2013-06-13 17:54:00,71.3,65.2,29.53,WSW,248,1.8,2.9,81,0.00,,,1.01,WUHU216HW,2013-06-13 21:54:00,
2013-06-13 17:59:00,71.1,64.6,29.53,ESE,113,0.7,4.5,80,0.00,,,1.01,WUHU216HW,2013-06-13 21:59:00,
2013-06-13 18:04:00,71.3,65.2,29.53,ENE,68,0.7,4.5,81,0.00,,,1.01,WUHU216HW,2013-06-13 22:04:00,
2013-06-13 18:09:00,71.1,65.0,29.53,West,270,1.1,4.0,81,0.00,,,1.01,WUHU216HW,2013-06-13 22:09:00,
2013-06-13 18:14:00,70.9,64.8,29.53,SW,225,0.2,1.8,81,0.00,,,1.01,WUHU216HW,2013-06-13 22:14:00,
2013-06-13 18:19:00,70.9,65.2,29.53,NNE,23,0.2,2.0,82,0.00,,,1.01,WUHU216HW,2013-06-13 22:19:00,
2013-06-13 18:24:00,70.9,65.2,29.54,West,270,0.4,2.0,82,0.00,,,1.01,WUHU216HW,2013-06-13 22:24:00,
2013-06-13 18:29:00,71.1,63.9,29.54,NNW,338,3.4,3.4,78,0.00,,,1.01,WUHU216HW,2013-06-13 22:29:00,
2013-06-13 18:34:00,71.5,64.3,29.55,NNW,338,3.4,4.7,78,0.00,,,1.01,WUHU216HW,2013-06-13 22:34:00,
2013-06-13 18:39:00,71.3,63.3,29.56,WSW,248,4.3,4.7,76,0.00,,,1.01,WUHU216HW,2013-06-13 22:39:00,
2013-06-13 18:44:00,71.1,62.7,29.56,North,0,3.4,6.7,75,0.00,,,1.01,WUHU216HW,2013-06-13 22:44:00,
2013-06-13 18:49:00,70.9,62.2,29.57,NNW,338,4.0,8.3,74,0.00,,,1.01,WUHU216HW,2013-06-13 22:49:00,
2013-06-13 18:54:00,70.7,62.0,29.58,North,0,1.3,8.3,74,0.00,,,1.01,WUHU216HW,2013-06-13 22:54:00,
2013-06-13 18:59:00,70.4,61.7,29.58,NNE,23,4.9,5.8,74,0.00,,,1.01,WUHU216HW,2013-06-13 22:59:00,
2013-06-13 19:04:00,70.2,61.8,29.58,NW,315,1.8,5.8,75,0.00,,,1.01,WUHU216HW,2013-06-13 23:04:00,
2013-06-13 19:10:00,70.0,61.7,29.58,WSW,248,2.5,4.0,75,0.00,,,1.01,WUHU216HW,2013-06-13 23:10:00,
2013-06-13 19:15:00,69.8,61.1,29.58,NE,45,2.2,4.7,74,0.00,,,1.01,WUHU216HW,2013-06-13 23:15:00,
2013-06-13 19:20:00,69.8,60.8,29.58,NW,315,3.1,5.4,73,0.00,,,1.01,WUHU216HW,2013-06-13 23:20:00,
2013-06-13 19:25:00,69.8,60.3,29.59,North,0,4.7,5.4,72,0.00,,,1.01,WUHU216HW,2013-06-13 23:25:00,
2013-06-13 19:30:00,69.8,61.1,29.59,ENE,68,1.8,5.4,74,0.00,,,1.01,WUHU216HW,2013-06-13 23:30:00,
2013-06-13 19:35:00,69.7,60.6,29.59,NNW,338,0.4,5.4,73,0.00,,,1.01,WUHU216HW,2013-06-13 23:35:00,
2013-06-13 19:40:00,69.5,59.2,29.59,North,0,4.7,4.7,70,0.00,,,1.01,WUHU216HW,2013-06-13 23:40:00,
2013-06-13 19:45:00,69.3,59.1,29.58,NNW,338,2.2,4.7,70,0.00,,,1.01,WUHU216HW,2013-06-13 23:45:00,
2013-06-13 19:50:00,69.5,59.2,29.59,NNE,23,7.6,7.6,70,0.00,,,1.01,WUHU216HW,2013-06-13 23:50:00,
2013-06-13 19:55:00,69.3,59.5,29.60,NW,315,2.0,7.6,71,0.00,,,1.01,WUHU216HW,2013-06-13 23:55:00,
2013-06-13 20:00:00,69.1,59.3,29.60,NNW,338,2.2,5.8,71,0.00,,,0.00,WUHU216HW,2013-06-14 00:00:00,
2013-06-13 20:05:00,68.9,59.1,29.60,NNE,23,2.2,5.8,71,0.00,,,0.00,WUHU216HW,2013-06-14 00:05:00,
2013-06-13 20:10:00,68.8,59.0,29.61,North,0,3.4,3.4,71,0.00,,,0.00,WUHU216HW,2013-06-14 00:10:00,
2013-06-13 20:15:00,68.6,58.9,29.61,East,90,2.0,3.4,71,0.00,,,0.00,WUHU216HW,2013-06-14 00:15:00,
2013-06-13 20:20:00,68.4,58.3,29.60,NNE,23,1.1,3.1,70,0.00,,,0.00,WUHU216HW,2013-06-14 00:20:00,
2013-06-13 20:25:00,68.2,58.5,29.60,ENE,68,2.7,3.4,71,0.00,,,0.00,WUHU216HW,2013-06-14 00:25:00,
2013-06-13 20:30:00,68.0,58.0,29.60,NE,45,5.1,5.1,70,0.00,,,0.00,WUHU216HW,2013-06-14 00:30:00,
2013-06-13 20:35:00,68.0,58.0,29.60,NW,315,1.8,5.1,70,0.00,,,0.00,WUHU216HW,2013-06-14 00:35:00,
2013-06-13 20:40:00,67.9,58.1,29.60,NW,315,2.2,2.5,71,0.00,,,0.00,WUHU216HW,2013-06-14 00:40:00,
2013-06-13 20:45:00,67.7,58.3,29.60,NE,45,1.8,2.9,72,0.00,,,0.00,WUHU216HW,2013-06-14 00:45:00,
2013-06-13 20:50:00,67.5,58.1,29.60,NNW,338,1.8,2.9,72,0.00,,,0.00,WUHU216HW,2013-06-14 00:50:00,
2013-06-13 20:55:00,67.5,58.1,29.61,NW,315,0.2,2.5,72,0.00,,,0.00,WUHU216HW,2013-06-14 00:55:00,
2013-06-13 21:00:00,67.3,58.0,29.61,NNE,23,1.1,1.8,72,0.00,,,0.00,WUHU216HW,2013-06-14 01:00:00,
2013-06-13 21:05:00,67.3,57.6,29.61,North,0,1.8,3.4,71,0.00,,,0.00,WUHU216HW,2013-06-14 01:05:00,
2013-06-13 21:10:00,67.3,57.6,29.61,NNW,338,1.1,3.4,71,0.00,,,0.00,WUHU216HW,2013-06-14 01:10:00,
2013-06-13 21:15:00,67.1,57.8,29.62,North,0,1.8,2.7,72,0.00,,,0.00,WUHU216HW,2013-06-14 01:15:00,
2013-06-13 21:20:00,67.0,57.2,29.62,North,0,1.8,2.5,71,0.00,,,0.00,WUHU216HW,2013-06-14 01:20:00,
2013-06-13 21:25:00,67.0,57.2,29.62,North,0,0.9,4.3,71,0.00,,,0.00,WUHU216HW,2013-06-14 01:25:00,
2013-06-13 21:30:00,67.1,57.4,29.62,NNW,338,4.5,6.0,71,0.00,,,0.00,WUHU216HW,2013-06-14 01:30:00,
2013-06-13 21:35:00,67.0,57.2,29.62,North,0,3.8,6.0,71,0.00,,,0.00,WUHU216HW,2013-06-14 01:35:00,
2013-06-13 21:40:00,67.0,57.6,29.62,NW,315,1.1,3.8,72,0.00,,,0.00,WUHU216HW,2013-06-14 01:40:00,
2013-06-13 21:45:00,67.0,57.2,29.62,North,0,2.5,4.7,71,0.00,,,0.00,WUHU216HW,2013-06-14 01:45:00,
2013-06-13 21:50:00,67.0,57.2,29.62,North,0,1.6,4.7,71,0.00,,,0.00,WUHU216HW,2013-06-14 01:50:00,
2013-06-13 21:55:00,67.0,57.2,29.62,NNE,23,1.8,4.5,71,0.00,,,0.00,WUHU216HW,2013-06-14 01:55:00,
2013-06-13 22:00:00,67.0,56.9,29.62,NNW,338,3.6,4.5,70,0.00,,,0.00,WUHU216HW,2013-06-14 02:00:00,
2013-06-13 22:05:00,67.0,57.2,29.62,NNW,338,5.4,5.4,71,0.00,,,0.00,WUHU216HW,2013-06-14 02:05:00,
2013-06-13 22:10:00,66.8,57.1,29.62,NNW,338,2.2,5.4,71,0.00,,,0.00,WUHU216HW,2013-06-14 02:10:00,
2013-06-13 22:15:00,66.6,56.9,29.62,North,0,2.7,3.6,71,0.00,,,0.00,WUHU216HW,2013-06-14 02:15:00,
2013-06-13 22:20:00,66.6,56.9,29.61,North,0,0.4,3.8,71,0.00,,,0.00,WUHU216HW,2013-06-14 02:20:00,
2013-06-13 22:25:00,66.4,57.1,29.61,NE,45,2.7,3.8,72,0.00,,,0.00,WUHU216HW,2013-06-14 02:25:00,
2013-06-13 22:30:00,66.4,56.7,29.61,North,0,2.2,3.6,71,0.00,,,0.00,WUHU216HW,2013-06-14 02:30:00,
2013-06-13 22:35:00,66.4,56.7,29.61,NNW,338,2.7,4.5,71,0.00,,,0.00,WUHU216HW,2013-06-14 02:35:00,
2013-06-13 22:40:00,66.4,56.3,29.61,NNE,23,4.3,4.9,70,0.00,,,0.00,WUHU216HW,2013-06-14 02:40:00,
2013-06-13 22:46:00,66.2,56.5,29.61,NE,45,1.3,4.9,71,0.00,,,0.00,WUHU216HW,2013-06-14 02:46:00,
2013-06-13 22:51:00,66.2,56.5,29.62,ENE,68,4.7,4.7,71,0.00,,,0.00,WUHU216HW,2013-06-14 02:51:00,
2013-06-13 22:56:00,66.2,56.5,29.62,NNE,23,2.5,4.7,71,0.00,,,0.00,WUHU216HW,2013-06-14 02:56:00,
2013-06-13 23:01:00,66.1,56.3,29.63,North,0,0.4,3.1,71,0.00,,,0.00,WUHU216HW,2013-06-14 03:01:00,
2013-06-13 23:06:00,65.9,57.0,29.63,North,0,1.6,2.2,73,0.00,,,0.00,WUHU216HW,2013-06-14 03:06:00,
2013-06-13 23:11:00,65.9,57.0,29.62,NW,315,2.0,3.1,73,0.00,,,0.00,WUHU216HW,2013-06-14 03:11:00,
2013-06-13 23:16:00,65.7,56.8,29.63,NNE,23,1.8,3.1,73,0.00,,,0.00,WUHU216HW,2013-06-14 03:16:00,
2013-06-13 23:21:00,65.5,56.6,29.63,SE,135,1.3,2.7,73,0.00,,,0.00,WUHU216HW,2013-06-14 03:21:00,
2013-06-13 23:26:00,65.5,56.6,29.63,NNE,23,3.4,3.4,73,0.00,,,0.00,WUHU216HW,2013-06-14 03:26:00,
2013-06-13 23:31:00,65.5,56.6,29.64,NNE,23,1.1,3.4,73,0.00,,,0.00,WUHU216HW,2013-06-14 03:31:00,
2013-06-13 23:36:00,65.3,56.4,29.64,North,0,0.7,3.4,73,0.00,,,0.00,WUHU216HW,2013-06-14 03:36:00,
2013-06-13 23:41:00,65.5,57.0,29.65,West,270,1.1,2.5,74,0.00,,,0.00,WUHU216HW,2013-06-14 03:41:00,
2013-06-13 23:46:00,65.5,55.5,29.64,NNW,338,1.1,2.9,70,0.00,,,0.00,WUHU216HW,2013-06-14 03:46:00,
2013-06-13 23:51:00,65.9,55.8,29.64,NNE,23,3.4,3.4,70,0.00,,,0.00,WUHU216HW,2013-06-14 03:51:00,
2013-06-13 23:56:00,65.9,56.3,29.65,North,0,2.2,5.4,71,0.00,,,0.00,WUHU216HW,2013-06-14 03:56:00,